Wilkinson, Indiana
Current Conditions -  °F | °C
As of 1:15 AM on Thursday 29 Jan 2015 (Local Time) from KMQJ Reporting Station
Clear Clear  
Wind Chill: 24°   Ceiling: Unl
Heat Index: 34°   Visibility: 10mi
Dew Point: 12°   Wind: 15mph
Humidity: 41%   Direction: 170°S
Pressure: 29.99"   Gusts: 23mph
Location:  39.89°N, 85.61°W
Report Text: KMQJ 290615Z AUTO 17013G20KT 10SM CLR 01/M11 A2999 RMK AO1
Loading
Personal Weather Stations






























Interactive Weather Map New forecast layout! Learn more

10-Day Weather Forecast

Advertisements
Track Severe Weather on mobile